Pagrindinis puslapis
METAR-TAF:

METAR-TAF

Oro uostai :

Japas, Mikronezija

platuma: 09-29N, ilguma: 138-05E, Aukštis: 28 m

Dabartinis oras

Ataskaita buvo paskelbta 52 minutes, ne 00:53 UTC
Vėjas 9 kt iš Rytų
Temperatūra 30°C
Drėgmė 70%
Slėgis 1009 hPa
Matomumas: 19.3 km
Mažai debesys ne aukštis 1600 ft
Išsisklaidę debesys ne aukštis 13000 ft
Su prošvaistėmis ne aukštis 30000 ft

METAR: PTYA 260053Z 09009KT 12SM FEW016 SCT130 BKN300 30/24 A2981 RMK SLP095 T02970243

Laikas: 11:45 (01:45 UTC)

Prognozė

Ataskaita buvo paskelbta 2 valandos ir 8 minutes, ne 23:37 UTC
Prognozė galioja nuo 26 metu 00 UTC su 26 metu 24 UTC
Vėjas 8 kt iš Rytų
Matomumas: 10 km
Mažai debesys ne aukštis 1800 ft
Išsisklaidę debesys ne aukštis 5000 ft
Išsisklaidę debesys ne aukštis 12000 ft
Liūtis kaimynystėje

TAF: PTYA 252337Z 2600/2624 08008KT P6SM VCSH FEW018 SCT050 SCT120

Orai ataskaitas ir orų prognozės (METAR, TAF).

turimą stotys yra geltonos ir raudonos taškus žemėlapyje.

Perkelti pele per norėdami pamatyti stoties vardą.

Tada spustelėkite, norėdami matyti oro stebėjimo ir prognozės.

Norėdami pakeisti žemėlapį: spustelėkite ant žalios mygtukų su juodo kryžiaus žemyn,; žalią mygtuką su brūkšneliu, jei norite nutolinti; arba žalių rodyklių gretimoms žemėlapius.


METAR-TAF: